Time;durP1;ratioP1;P1;durP2;ratioP2;P2;SDS_P1;SDS_P2;PMS_P1;PMS_P2;Temp;Humidity;BMP_temperature;BMP_pressure;BME280_temperature;BME280_humidity;BME280_pressure;Samples;Min_cycle;Max_cycle;Signal;HPM_P1;HPM_P2
2023/12/23 00:01:58;;;;;;;5.05;1.55;;;0.60;99.90;;;;;;4391687;28;656409;-77
2023/12/23 00:04:45;;;;;;;3.93;1.80;;;0.70;99.90;;;;;;4413652;28;656489;-78
2023/12/23 00:07:33;;;;;;;1.17;0.70;;;0.70;99.90;;;;;;4394968;28;656723;-76
2023/12/23 00:10:20;;;;;;;5.47;1.50;;;0.70;99.90;;;;;;4414087;28;657872;-79
2023/12/23 00:13:07;;;;;;;5.83;1.63;;;0.80;99.90;;;;;;4405073;28;657100;-77
2023/12/23 00:15:56;;;;;;;3.40;1.07;;;0.70;99.90;;;;;;4417689;28;656552;-78
2023/12/23 00:18:43;;;;;;;5.17;1.47;;;0.80;99.90;;;;;;4390871;28;657080;-78
2023/12/23 00:21:30;;;;;;;5.37;1.30;;;0.80;99.90;;;;;;4419664;28;657892;-78
2023/12/23 00:24:17;;;;;;;6.88;1.30;;;0.80;99.90;;;;;;4411942;28;656643;-78
2023/12/23 00:27:05;;;;;;;5.13;1.40;;;0.80;99.90;;;;;;4435243;28;656326;-78
2023/12/23 00:29:52;;;;;;;4.32;1.60;;;0.80;99.90;;;;;;4411473;28;657490;-77
2023/12/23 00:32:41;;;;;;;9.03;1.47;;;0.80;99.90;;;;;;4431869;28;656962;-78
2023/12/23 00:35:28;;;;;;;6.67;1.63;;;0.80;99.90;;;;;;4411505;28;656509;-79
2023/12/23 00:38:15;;;;;;;5.67;1.40;;;0.80;99.90;;;;;;4431171;28;657319;-78
2023/12/23 00:41:03;;;;;;;3.43;0.83;;;0.70;99.90;;;;;;4411150;28;656612;-77
2023/12/23 00:43:50;;;;;;;4.47;1.27;;;0.60;99.90;;;;;;4436007;28;656787;-79
2023/12/23 00:46:37;;;;;;;3.85;0.65;;;0.70;99.90;;;;;;4411659;28;657024;-78
2023/12/23 00:49:26;;;;;;;8.20;1.43;;;0.70;99.90;;;;;;4434546;28;657422;-78
2023/12/23 00:52:13;;;;;;;11.10;1.52;;;0.70;99.90;;;;;;4407581;28;656585;-78
2023/12/23 00:55:02;;;;;;;5.13;1.50;;;0.70;99.90;;;;;;4432154;28;658689;-79
2023/12/23 00:57:49;;;;;;;7.03;1.30;;;0.70;99.90;;;;;;4407969;28;657385;-78
2023/12/23 01:00:37;;;;;;;4.20;1.13;;;0.80;99.90;;;;;;4434936;28;656629;-79
2023/12/23 01:03:24;;;;;;;6.70;1.70;;;0.70;99.90;;;;;;4411990;28;657758;-79
2023/12/23 01:06:13;;;;;;;3.60;1.60;;;0.70;99.90;;;;;;4434444;28;656225;-79
2023/12/23 01:09:00;;;;;;;4.20;1.33;;;0.60;99.90;;;;;;4408265;28;657174;-79
2023/12/23 01:11:47;;;;;;;4.43;1.57;;;0.60;99.90;;;;;;4412051;28;656578;-77
2023/12/23 01:14:34;;;;;;;8.17;1.57;;;0.70;99.90;;;;;;4434719;28;656603;-79
2023/12/23 01:17:22;;;;;;;6.43;1.27;;;0.60;99.90;;;;;;4433596;28;656313;-80
2023/12/23 01:20:10;;;;;;;10.70;1.80;;;0.60;99.90;;;;;;4411892;28;656534;-79
2023/12/23 01:22:59;;;;;;;6.13;1.63;;;0.60;99.90;;;;;;4427332;28;657107;-77
2023/12/23 01:25:46;;;;;;;6.50;1.70;;;0.60;99.90;;;;;;4430471;28;656320;-79
2023/12/23 01:28:33;;;;;;;7.93;1.17;;;0.70;99.90;;;;;;4413021;28;656957;-79
2023/12/23 01:31:21;;;;;;;11.03;1.67;;;0.60;99.90;;;;;;4436562;28;656450;-80
2023/12/23 01:34:08;;;;;;;3.80;1.13;;;0.70;99.90;;;;;;4413512;28;657621;-79
2023/12/23 01:36:55;;;;;;;6.33;1.03;;;0.70;99.90;;;;;;4433849;28;657427;-79
2023/12/23 01:39:44;;;;;;;2.70;1.00;;;0.70;99.90;;;;;;4425521;28;657219;-77
2023/12/23 01:42:31;;;;;;;7.90;1.40;;;0.70;99.90;;;;;;4437490;28;656355;-79
2023/12/23 01:45:19;;;;;;;4.60;0.80;;;0.60;99.90;;;;;;4413323;28;657285;-79
2023/12/23 01:48:06;;;;;;;5.73;1.20;;;0.70;99.90;;;;;;4433433;28;657097;-80
2023/12/23 01:50:53;;;;;;;9.45;1.00;;;0.70;99.90;;;;;;4411033;28;656552;-80
2023/12/23 01:53:40;;;;;;;6.60;1.03;;;0.80;99.90;;;;;;4433820;28;657248;-78
2023/12/23 01:56:29;;;;;;;4.90;1.00;;;0.70;99.90;;;;;;4396438;28;656824;-76
2023/12/23 01:59:16;;;;;;;3.77;0.83;;;0.70;99.90;;;;;;4418725;28;656414;-78
2023/12/23 02:02:04;;;;;;;6.30;1.17;;;0.70;99.90;;;;;;4395661;28;656441;-78
2023/12/23 02:04:51;;;;;;;3.77;1.00;;;0.70;99.90;;;;;;4416115;28;656459;-79
2023/12/23 02:07:38;;;;;;;8.40;0.97;;;0.70;99.90;;;;;;4396258;28;656623;-79
2023/12/23 02:10:25;;;;;;;5.50;1.37;;;0.70;99.90;;;;;;4418957;28;657304;-79
2023/12/23 02:13:17;;;;;;;8.07;1.47;;;0.70;99.90;;;;;;4396456;28;656480;-78
2023/12/23 02:16:05;;;;;;;3.73;1.20;;;0.70;99.90;;;;;;4392686;28;657622;-79
2023/12/23 02:18:52;;;;;;;4.20;1.20;;;0.80;99.90;;;;;;4409060;28;656425;-77
2023/12/23 02:21:41;;;;;;;4.57;1.30;;;0.70;99.90;;;;;;4426339;28;657036;-80
2023/12/23 02:24:28;;;;;;;7.80;1.50;;;0.70;99.90;;;;;;4411199;28;657174;-79
2023/12/23 02:27:16;;;;;;;5.97;1.13;;;0.70;99.90;;;;;;4433939;28;657609;-80
2023/12/23 02:30:03;;;;;;;7.93;1.40;;;0.80;99.90;;;;;;4414636;28;657248;-79
2023/12/23 02:32:51;;;;;;;5.07;1.10;;;0.70;99.90;;;;;;4435113;28;657440;-79
2023/12/23 02:35:38;;;;;;;6.93;1.40;;;0.80;99.90;;;;;;4413709;28;657205;-78
2023/12/23 02:38:27;;;;;;;2.73;0.90;;;0.80;99.90;;;;;;4431589;28;657855;-79
2023/12/23 02:41:14;;;;;;;4.93;0.90;;;0.70;99.90;;;;;;4395454;28;656971;-80
2023/12/23 02:44:01;;;;;;;7.33;1.30;;;0.70;99.90;;;;;;4414653;28;656737;-80
2023/12/23 02:46:48;;;;;;;4.60;1.20;;;0.70;99.90;;;;;;4401541;28;656933;-79
2023/12/23 02:49:35;;;;;;;4.17;1.23;;;0.70;99.90;;;;;;4436756;28;657252;-79
2023/12/23 02:52:22;;;;;;;2.40;0.77;;;0.70;99.90;;;;;;4413615;28;656938;-77
2023/12/23 02:55:11;;;;;;;1.73;0.77;;;0.70;99.90;;;;;;4436534;28;656714;-79
2023/12/23 02:57:58;;;;;;;6.73;1.50;;;0.70;99.90;;;;;;4413380;28;656668;-80
2023/12/23 03:00:45;;;;;;;2.17;1.00;;;0.70;99.90;;;;;;4435879;28;656996;-79
2023/12/23 03:03:33;;;;;;;0.50;0.50;;;0.60;99.90;;;;;;4412550;28;656933;-78
2023/12/23 03:06:20;;;;;;;1.60;0.67;;;0.70;99.90;;;;;;4432155;28;658163;-80
2023/12/23 03:09:08;;;;;;;7.13;1.50;;;0.60;99.90;;;;;;4422930;28;657330;-77
2023/12/23 03:11:56;;;;;;;4.83;1.23;;;0.50;99.90;;;;;;4432521;28;658043;-79
2023/12/23 03:14:43;;;;;;;1.40;1.00;;;0.50;99.90;;;;;;4413240;28;656679;-79
2023/12/23 03:17:30;;;;;;;5.20;1.23;;;0.50;99.90;;;;;;4435202;28;657313;-79
2023/12/23 03:20:18;;;;;;;7.60;1.53;;;0.40;99.90;;;;;;4412591;28;656246;-78
2023/12/23 03:23:05;;;;;;;2.73;1.30;;;0.40;99.90;;;;;;4432853;28;657284;-80
2023/12/23 03:25:52;;;;;;;1.27;0.77;;;0.30;99.90;;;;;;4421476;28;656797;-77
2023/12/23 03:28:41;;;;;;;4.07;1.17;;;0.20;99.90;;;;;;4435902;28;656616;-80
2023/12/23 03:31:28;;;;;;;3.10;1.30;;;0.20;99.90;;;;;;4409225;28;657026;-79
2023/12/23 03:34:15;;;;;;;1.53;1.17;;;0.20;99.90;;;;;;4433465;28;656426;-80
2023/12/23 03:37:02;;;;;;;1.42;0.77;;;0.20;99.90;;;;;;4412782;28;656691;-77
2023/12/23 03:39:50;;;;;;;3.67;2.10;;;0.20;99.90;;;;;;4417465;28;657095;-79
2023/12/23 03:42:38;;;;;;;6.80;2.20;;;0.10;99.90;;;;;;4411017;28;656655;-78
2023/12/23 03:45:27;;;;;;;8.00;1.80;;;0.10;99.90;;;;;;4417163;28;657148;-80
2023/12/23 03:48:14;;;;;;;3.57;2.00;;;0.20;99.90;;;;;;4391475;28;658208;-79
2023/12/23 03:51:01;;;;;;;6.03;1.77;;;0.20;99.90;;;;;;4414303;28;657099;-79
2023/12/23 03:53:48;;;;;;;5.15;1.23;;;0.20;99.90;;;;;;4395763;28;656635;-80
2023/12/23 03:56:36;;;;;;;3.47;1.67;;;0.20;99.90;;;;;;4413762;28;657487;-80
2023/12/23 03:59:23;;;;;;;3.93;1.87;;;0.10;99.90;;;;;;4395529;28;656644;-80
2023/12/23 04:02:11;;;;;;;5.10;2.23;;;0.10;99.90;;;;;;4418267;28;656702;-80
2023/12/23 04:04:58;;;;;;;5.83;2.00;;;0.10;99.90;;;;;;4394625;28;656914;-79
2023/12/23 04:07:48;;;;;;;7.77;2.00;;;0.20;99.90;;;;;;4413194;28;657137;-80
2023/12/23 04:10:35;;;;;;;2.80;1.27;;;0.20;99.90;;;;;;4394455;28;657438;-79
2023/12/23 04:13:22;;;;;;;5.80;2.03;;;0.10;99.90;;;;;;4410035;28;656575;-77
2023/12/23 04:16:10;;;;;;;5.83;2.00;;;0.10;99.90;;;;;;4422616;28;656611;-79
2023/12/23 04:18:58;;;;;;;2.33;1.40;;;0.10;99.90;;;;;;4434760;28;656683;-78
2023/12/23 04:21:45;;;;;;;5.17;1.43;;;0.10;99.90;;;;;;4408843;28;657313;-79
2023/12/23 04:24:32;;;;;;;3.40;1.77;;;0.10;99.90;;;;;;4412171;28;656470;-77
2023/12/23 04:27:20;;;;;;;8.90;2.23;;;0.10;99.90;;;;;;4435261;28;656860;-79
2023/12/23 04:30:08;;;;;;;5.20;2.30;;;0.20;99.90;;;;;;4424191;28;656746;-78
2023/12/23 04:32:55;;;;;;;7.80;2.43;;;0.10;99.90;;;;;;4433703;28;657179;-80
2023/12/23 04:35:44;;;;;;;6.55;1.90;;;0.10;99.90;;;;;;4411711;28;656331;-78
2023/12/23 04:38:31;;;;;;;7.27;0.97;;;0.10;99.90;;;;;;4434740;28;656388;-79
2023/12/23 04:41:18;;;;;;;5.15;1.85;;;0.10;99.90;;;;;;4409101;28;656934;-79
2023/12/23 04:44:05;;;;;;;7.40;2.67;;;0.10;99.90;;;;;;4432034;28;656514;-80
2023/12/23 04:46:52;;;;;;;8.43;1.93;;;0.10;99.90;;;;;;4410574;28;656547;-79
2023/12/23 04:49:40;;;;;;;1.87;0.80;;;0.10;99.90;;;;;;4430288;28;657471;-79
2023/12/23 04:52:29;;;;;;;2.57;1.50;;;0.10;99.90;;;;;;4430429;28;656823;-79
2023/12/23 04:55:16;;;;;;;5.77;2.27;;;0.00;99.90;;;;;;4434626;28;656484;-80
2023/12/23 04:58:04;;;;;;;7.15;2.10;;;0.10;99.90;;;;;;4412387;28;656975;-79
2023/12/23 05:00:51;;;;;;;7.20;2.50;;;0.10;99.90;;;;;;4430856;28;656909;-80
2023/12/23 05:03:38;;;;;;;8.80;2.17;;;0.10;99.90;;;;;;4412740;28;657030;-79
2023/12/23 05:06:26;;;;;;;3.27;1.50;;;0.10;99.90;;;;;;4438799;28;657438;-80
2023/12/23 05:09:15;;;;;;;4.77;1.80;;;0.00;99.90;;;;;;4415453;28;656602;-79
2023/12/23 05:12:03;;;;;;;5.65;1.67;;;0.00;99.90;;;;;;4420105;28;656509;-78
2023/12/23 05:14:50;;;;;;;2.90;1.20;;;0.00;99.90;;;;;;4434737;28;657783;-79
2023/12/23 05:17:37;;;;;;;3.80;1.23;;;0.00;99.90;;;;;;4429097;28;656411;-77
2023/12/23 05:20:25;;;;;;;5.30;0.83;;;0.00;99.90;;;;;;4438010;28;657020;-79
2023/12/23 05:23:12;;;;;;;4.20;1.13;;;0.00;99.90;;;;;;4438055;28;657098;-79
2023/12/23 05:26:00;;;;;;;5.80;1.00;;;0.00;99.90;;;;;;4415249;28;656673;-80
2023/12/23 05:28:47;;;;;;;6.40;1.10;;;0.00;99.90;;;;;;4414959;28;656784;-78
2023/12/23 05:31:35;;;;;;;2.10;0.83;;;0.00;99.90;;;;;;4433901;28;657387;-79
2023/12/23 05:34:22;;;;;;;2.63;0.87;;;0.10;99.90;;;;;;4430393;28;656175;-78
2023/12/23 05:37:10;;;;;;;3.83;1.03;;;0.10;99.90;;;;;;4433430;28;657156;-80
2023/12/23 05:39:57;;;;;;;0.97;0.50;;;0.00;99.90;;;;;;4391726;28;656342;-78
2023/12/23 05:42:46;;;;;;;1.17;0.80;;;0.10;99.90;;;;;;4402833;28;656668;-79
2023/12/23 05:45:33;;;;;;;1.60;0.70;;;0.00;99.90;;;;;;4377720;28;656932;-79
2023/12/23 05:48:20;;;;;;;1.73;0.43;;;0.00;99.90;;;;;;4401196;28;656214;-80
2023/12/23 05:51:08;;;;;;;0.77;0.40;;;0.00;99.90;;;;;;4379899;28;656848;-78
2023/12/23 05:53:55;;;;;;;2.20;0.80;;;0.00;99.90;;;;;;4400004;28;656949;-80
2023/12/23 05:56:42;;;;;;;1.67;0.50;;;-0.10;99.90;;;;;;4380470;28;656683;-78
2023/12/23 05:59:32;;;;;;;5.60;0.93;;;-0.20;99.90;;;;;;4401582;28;658484;-80
2023/12/23 06:02:19;;;;;;;5.70;0.80;;;-0.30;99.90;;;;;;4374913;28;658438;-80
2023/12/23 06:05:07;;;;;;;1.97;0.80;;;-0.30;99.90;;;;;;4401490;28;657508;-80
2023/12/23 06:07:55;;;;;;;2.60;0.47;;;-0.30;99.90;;;;;;4374713;28;658635;-80
2023/12/23 06:10:42;;;;;;;12.83;1.07;;;-0.30;99.90;;;;;;4400919;28;657834;-81
2023/12/23 06:13:29;;;;;;;1.83;0.60;;;-0.30;99.90;;;;;;4377558;28;658807;-80
2023/12/23 06:16:17;;;;;;;3.80;0.60;;;-0.30;99.90;;;;;;4404931;28;657233;-80
2023/12/23 06:19:05;;;;;;;3.50;0.70;;;-0.30;99.90;;;;;;4394668;28;657926;-81
2023/12/23 06:21:52;;;;;;;8.83;1.00;;;-0.30;99.90;;;;;;4418199;28;657474;-81
2023/12/23 06:24:39;;;;;;;0.67;0.30;;;-0.30;99.90;;;;;;4395237;28;657609;-80
2023/12/23 06:27:26;;;;;;;4.73;0.67;;;-0.40;99.90;;;;;;4418329;28;657426;-80
2023/12/23 06:30:14;;;;;;;2.30;0.80;;;-0.50;99.90;;;;;;4393569;28;657632;-80
2023/12/23 06:33:03;;;;;;;1.40;0.77;;;-0.50;99.90;;;;;;4417927;28;657948;-81
2023/12/23 06:35:50;;;;;;;2.93;0.90;;;-0.50;99.90;;;;;;4395046;28;658445;-80
2023/12/23 06:38:37;;;;;;;1.27;0.90;;;-0.50;99.90;;;;;;4407789;28;657716;-79
2023/12/23 06:41:25;;;;;;;4.73;1.30;;;-0.50;99.90;;;;;;4435761;28;658512;-81
2023/12/23 06:44:12;;;;;;;4.10;0.90;;;-0.50;99.90;;;;;;4435792;28;657330;-81
2023/12/23 06:46:59;;;;;;;4.17;1.07;;;-0.60;99.90;;;;;;4412501;28;657867;-82
2023/12/23 06:49:48;;;;;;;3.60;1.07;;;-0.60;99.90;;;;;;4430346;28;657580;-81
2023/12/23 06:52:35;;;;;;;0.80;0.60;;;-0.70;99.90;;;;;;4411307;28;658433;-81
2023/12/23 06:55:22;;;;;;;4.03;1.10;;;-0.60;99.90;;;;;;4423352;28;658045;-80
2023/12/23 06:58:09;;;;;;;0.50;0.50;;;-0.60;99.90;;;;;;4435733;28;657653;-82
2023/12/23 07:00:57;;;;;;;1.53;0.63;;;-0.70;99.90;;;;;;4434803;28;657649;-82
2023/12/23 07:03:44;;;;;;;2.97;0.80;;;-0.60;99.90;;;;;;4412097;28;658104;-82
2023/12/23 07:06:32;;;;;;;4.80;1.10;;;-0.60;99.90;;;;;;4434778;28;657455;-82
2023/12/23 07:09:19;;;;;;;2.10;0.70;;;-0.60;99.90;;;;;;4411820;28;658427;-82
2023/12/23 07:12:08;;;;;;;3.37;1.20;;;-0.60;99.90;;;;;;4434395;28;656942;-82
2023/12/23 07:14:55;;;;;;;3.63;0.80;;;-0.60;99.90;;;;;;4411725;28;659075;-82
2023/12/23 07:17:42;;;;;;;1.90;1.00;;;-0.60;99.90;;;;;;4420723;28;658373;-81
2023/12/23 07:20:30;;;;;;;3.77;0.87;;;-0.50;99.90;;;;;;4434678;28;657699;-82
2023/12/23 07:23:19;;;;;;;1.90;0.60;;;-0.40;99.90;;;;;;4429464;28;657440;-82
2023/12/23 07:26:06;;;;;;;6.03;0.90;;;-0.40;99.90;;;;;;4434050;28;658003;-81
2023/12/23 07:28:53;;;;;;;2.63;1.43;;;-0.40;99.90;;;;;;4411742;28;657358;-81
2023/12/23 07:31:40;;;;;;;1.17;0.40;;;-0.40;99.90;;;;;;4434640;28;657522;-82
2023/12/23 07:34:28;;;;;;;1.80;0.80;;;-0.40;99.90;;;;;;4411107;28;657796;-80
2023/12/23 07:37:15;;;;;;;3.67;0.73;;;-0.40;99.90;;;;;;4430071;28;658095;-82
2023/12/23 07:40:05;;;;;;;4.07;1.20;;;-0.40;99.90;;;;;;4399838;28;657770;-80
2023/12/23 07:42:52;;;;;;;4.50;0.80;;;-0.40;99.90;;;;;;4393958;28;657418;-79
2023/12/23 07:45:40;;;;;;;2.63;0.70;;;-0.40;99.90;;;;;;4416205;28;658426;-82
2023/12/23 07:48:28;;;;;;;3.10;1.10;;;-0.40;99.90;;;;;;4393011;28;657858;-81
2023/12/23 07:51:15;;;;;;;1.13;0.60;;;-0.40;99.90;;;;;;4412715;28;658987;-83
2023/12/23 07:54:03;;;;;;;1.13;0.60;;;-0.40;99.90;;;;;;4395781;28;657815;-81
2023/12/23 07:56:51;;;;;;;2.13;0.80;;;-0.40;99.90;;;;;;4429571;28;658583;-82
2023/12/23 07:59:40;;;;;;;0.97;0.47;;;-0.40;99.90;;;;;;4411275;28;658186;-82
2023/12/23 08:02:27;;;;;;;0.30;0.30;;;-0.40;99.90;;;;;;4434426;28;657357;-81
2023/12/23 08:05:14;;;;;;;1.67;0.60;;;-0.30;99.90;;;;;;4433526;28;657775;-81
2023/12/23 08:08:02;;;;;;;2.93;0.80;;;-0.30;99.90;;;;;;4433932;28;657712;-82
2023/12/23 08:10:50;;;;;;;2.63;0.80;;;-0.30;99.90;;;;;;4407008;28;658310;-82
2023/12/23 08:13:40;;;;;;;0.73;0.63;;;-0.10;99.90;;;;;;4423483;28;657565;-81
2023/12/23 08:16:28;;;;;;;0.93;0.57;;;-0.20;99.90;;;;;;4410479;28;657689;-80
2023/12/23 08:19:15;;;;;;;2.77;0.90;;;-0.10;99.90;;;;;;4429755;28;658395;-82
2023/12/23 08:22:02;;;;;;;3.93;1.13;;;-0.10;99.90;;;;;;4424753;28;657791;-81
2023/12/23 08:24:50;;;;;;;1.97;0.73;;;0.00;99.90;;;;;;4433580;28;658414;-82
2023/12/23 08:27:38;;;;;;;1.13;0.70;;;0.10;99.90;;;;;;4434803;28;656448;-82
2023/12/23 08:30:27;;;;;;;2.47;1.00;;;0.10;99.90;;;;;;4408101;28;656796;-82
2023/12/23 08:33:14;;;;;;;1.30;0.80;;;0.20;99.90;;;;;;4411880;28;656553;-82
2023/12/23 08:36:01;;;;;;;1.77;1.00;;;0.20;99.90;;;;;;4435389;28;656827;-81
2023/12/23 08:38:49;;;;;;;3.33;1.10;;;0.00;99.90;;;;;;4409769;28;657010;-82
2023/12/23 08:41:36;;;;;;;1.83;1.20;;;-0.10;99.90;;;;;;4431550;28;656741;-82
2023/12/23 08:44:23;;;;;;;2.67;1.20;;;-0.10;99.90;;;;;;4410990;28;657083;-81
2023/12/23 08:47:12;;;;;;;1.53;0.90;;;-0.20;99.90;;;;;;4433732;28;658071;-82
2023/12/23 08:49:59;;;;;;;3.13;0.90;;;-0.10;99.90;;;;;;4401382;28;657422;-82
2023/12/23 08:52:47;;;;;;;3.17;0.93;;;0.00;99.90;;;;;;4415872;28;658018;-82
2023/12/23 08:55:34;;;;;;;1.77;1.03;;;0.10;99.90;;;;;;4404756;28;657190;-82
2023/12/23 08:58:21;;;;;;;2.03;1.23;;;0.10;99.90;;;;;;4431502;28;657648;-81
2023/12/23 09:01:08;;;;;;;2.72;1.00;;;0.40;99.90;;;;;;4412468;28;656656;-81
2023/12/23 09:03:57;;;;;;;1.80;0.83;;;0.70;99.90;;;;;;4434661;28;657603;-81
2023/12/23 09:06:44;;;;;;;3.27;1.07;;;0.70;99.90;;;;;;4408072;28;657599;-82
2023/12/23 09:09:31;;;;;;;2.90;0.90;;;0.50;99.90;;;;;;4434554;28;656539;-81
2023/12/23 09:12:19;;;;;;;0.60;0.57;;;0.40;99.90;;;;;;4412265;28;657137;-81
2023/12/23 09:15:06;;;;;;;2.93;1.10;;;0.40;99.90;;;;;;4434050;28;656401;-82
2023/12/23 09:17:54;;;;;;;3.70;1.20;;;0.30;99.90;;;;;;4407403;28;656653;-81
2023/12/23 09:20:42;;;;;;;0.90;0.70;;;0.10;99.90;;;;;;4430607;28;656684;-82
2023/12/23 09:23:30;;;;;;;4.47;1.30;;;0.10;99.90;;;;;;4409951;28;656785;-81
2023/12/23 09:26:17;;;;;;;6.03;1.30;;;0.20;99.90;;;;;;4434390;28;656120;-81
2023/12/23 09:29:05;;;;;;;6.10;1.83;;;0.20;99.90;;;;;;4434420;28;656843;-82
2023/12/23 09:31:52;;;;;;;3.30;1.07;;;0.30;99.90;;;;;;4434522;28;656467;-82
2023/12/23 09:34:39;;;;;;;2.00;1.03;;;0.30;99.90;;;;;;4411497;28;656351;-81
2023/12/23 09:37:27;;;;;;;5.63;1.17;;;0.40;99.90;;;;;;4434578;28;656488;-82
2023/12/23 09:40:15;;;;;;;3.27;1.20;;;0.40;99.90;;;;;;4392172;28;657389;-81
2023/12/23 09:43:02;;;;;;;2.83;1.23;;;0.30;99.90;;;;;;4394304;28;656431;-80
2023/12/23 09:45:50;;;;;;;6.80;1.60;;;0.40;99.90;;;;;;4417031;28;657321;-81
2023/12/23 09:48:37;;;;;;;5.50;1.40;;;0.30;99.90;;;;;;4412601;28;656499;-78
2023/12/23 09:51:26;;;;;;;3.50;1.30;;;0.40;99.90;;;;;;4420571;28;657133;-81
2023/12/23 09:54:20;;;;;;;3.40;1.73;;;0.30;99.90;;;;;;4401379;28;656580;-82
2023/12/23 09:57:08;;;;;;;2.03;0.90;;;0.30;99.90;;;;;;4399764;28;656889;-79
2023/12/23 09:59:55;;;;;;;2.57;1.03;;;0.30;99.90;;;;;;4433520;28;656995;-81
2023/12/23 10:02:43;;;;;;;8.33;1.83;;;0.30;99.90;;;;;;4414287;28;656405;-81
2023/12/23 10:05:30;;;;;;;6.90;1.20;;;0.30;99.90;;;;;;4433173;28;657138;-83
2023/12/23 10:08:18;;;;;;;7.83;1.73;;;0.30;99.90;;;;;;4414463;28;656456;-80
2023/12/23 10:11:07;;;;;;;4.97;1.70;;;0.20;99.90;;;;;;4436997;28;656505;-81
2023/12/23 10:13:54;;;;;;;5.77;1.37;;;0.20;99.90;;;;;;4414193;28;656588;-81
2023/12/23 10:16:41;;;;;;;6.83;1.57;;;0.20;99.90;;;;;;4436301;28;656480;-81
2023/12/23 10:19:28;;;;;;;3.50;1.60;;;0.10;99.90;;;;;;4413857;28;656886;-81
2023/12/23 10:22:17;;;;;;;7.57;2.00;;;0.20;99.90;;;;;;4435609;28;656795;-83
2023/12/23 10:25:04;;;;;;;7.83;2.20;;;0.20;99.90;;;;;;4414153;28;657311;-82
2023/12/23 10:27:55;;;;;;;6.27;1.53;;;0.20;99.90;;;;;;4436771;28;655829;-82
2023/12/23 10:30:45;;;;;;;7.43;1.87;;;0.20;99.90;;;;;;4410467;28;656448;-82
2023/12/23 10:33:33;;;;;;;5.33;1.57;;;0.20;99.90;;;;;;4395893;28;657030;-82
2023/12/23 10:36:20;;;;;;;4.57;1.87;;;0.20;99.90;;;;;;4432912;28;657804;-82
2023/12/23 10:39:10;;;;;;;10.68;1.75;;;0.30;99.90;;;;;;4418716;28;656731;-80
2023/12/23 10:41:58;;;;;;;2.00;0.80;;;0.30;99.90;;;;;;4420302;28;657874;-79
2023/12/23 10:44:46;;;;;;;6.17;1.53;;;0.30;99.90;;;;;;4432582;28;657898;-82
2023/12/23 10:47:33;;;;;;;7.30;1.98;;;0.40;99.90;;;;;;4413653;28;656576;-80
2023/12/23 10:50:21;;;;;;;2.57;0.83;;;0.40;99.90;;;;;;4428133;28;656811;-81
2023/12/23 10:53:09;;;;;;;5.40;1.97;;;0.40;99.90;;;;;;4413278;28;656589;-81
2023/12/23 10:55:56;;;;;;;5.70;1.43;;;0.40;99.90;;;;;;4435464;28;656393;-81
2023/12/23 10:58:43;;;;;;;6.87;1.13;;;0.40;99.90;;;;;;4411089;28;657313;-82
2023/12/23 11:01:33;;;;;;;9.47;2.37;;;0.40;99.90;;;;;;4435456;28;657339;-81
2023/12/23 11:04:20;;;;;;;8.30;2.63;;;0.30;99.90;;;;;;4409305;28;657617;-81
2023/12/23 11:07:08;;;;;;;9.20;1.53;;;0.40;99.90;;;;;;4420980;28;656982;-80
2023/12/23 11:09:58;;;;;;;13.23;2.83;;;0.40;99.90;;;;;;4432741;28;656807;-81
2023/12/23 11:12:45;;;;;;;9.03;2.80;;;0.40;99.90;;;;;;4411760;28;658301;-82
2023/12/23 11:15:32;;;;;;;11.70;2.78;;;0.40;99.90;;;;;;4413226;28;657085;-79
2023/12/23 11:18:21;;;;;;;6.40;2.10;;;0.40;99.90;;;;;;4431065;28;658466;-80
2023/12/23 11:21:15;;;;;;;8.93;2.93;;;0.40;99.90;;;;;;4410447;28;656840;-80
2023/12/23 11:24:02;;;;;;;2.93;1.07;;;0.40;99.90;;;;;;4403079;28;657266;-79
2023/12/23 11:26:53;;;;;;;14.13;3.10;;;0.50;99.90;;;;;;4436493;28;656936;-80
2023/12/23 11:29:40;;;;;;;6.67;2.20;;;0.40;99.90;;;;;;4412288;28;657977;-80
2023/12/23 11:32:33;;;;;;;8.47;2.60;;;0.50;99.90;;;;;;4412533;28;657022;-80
2023/12/23 11:35:22;;;;;;;9.07;2.50;;;0.50;99.90;;;;;;4409208;28;657079;-81
2023/12/23 11:38:09;;;;;;;8.70;3.13;;;0.50;99.90;;;;;;4411702;28;656835;-82
2023/12/23 11:40:56;;;;;;;10.07;3.10;;;0.50;99.90;;;;;;4435381;28;656841;-81
2023/12/23 11:43:45;;;;;;;13.90;2.93;;;0.50;99.90;;;;;;4390848;28;657275;-81
2023/12/23 11:46:32;;;;;;;6.30;2.03;;;0.50;99.90;;;;;;4416682;28;658409;-80
2023/12/23 11:49:19;;;;;;;1.30;0.83;;;0.60;99.90;;;;;;4380098;28;656570;-81
2023/12/23 11:52:08;;;;;;;13.80;3.40;;;0.50;99.90;;;;;;4400458;28;656535;-80
2023/12/23 11:54:55;;;;;;;15.07;5.30;;;0.50;99.90;;;;;;4390534;28;657854;-81
2023/12/23 11:57:42;;;;;;;6.63;2.40;;;0.50;99.90;;;;;;4411821;28;657262;-81
2023/12/23 12:00:30;;;;;;;7.37;1.93;;;0.50;99.90;;;;;;4426180;28;656495;-81
2023/12/23 12:03:17;;;;;;;3.30;1.50;;;0.60;99.90;;;;;;4395020;28;656700;-78
2023/12/23 12:06:05;;;;;;;8.97;2.10;;;0.60;99.90;;;;;;4417843;28;657254;-81
2023/12/23 12:08:55;;;;;;;12.07;3.67;;;0.60;99.90;;;;;;4394923;28;656495;-79
2023/12/23 12:11:43;;;;;;;7.03;2.83;;;0.50;99.90;;;;;;4393053;28;657621;-80
2023/12/23 12:14:30;;;;;;;11.70;2.75;;;0.50;99.90;;;;;;4417228;28;657287;-81
2023/12/23 12:17:18;;;;;;;8.80;2.80;;;0.60;99.90;;;;;;4405814;28;657552;-80
2023/12/23 12:20:06;;;;;;;5.57;2.10;;;0.60;99.90;;;;;;4430776;28;657033;-81
2023/12/23 12:22:53;;;;;;;7.23;1.97;;;0.60;99.90;;;;;;4410998;28;656603;-80
2023/12/23 12:25:47;;;;;;;8.03;3.20;;;0.60;99.90;;;;;;4434454;28;657623;-82
2023/12/23 12:28:35;;;;;;;4.03;1.70;;;0.50;99.90;;;;;;4412342;28;656368;-81
2023/12/23 12:31:23;;;;;;;12.33;2.63;;;0.40;99.90;;;;;;4429231;28;656910;-81
2023/12/23 12:34:12;;;;;;;7.40;2.73;;;0.40;99.90;;;;;;4430753;28;658320;-82
2023/12/23 12:36:59;;;;;;;4.80;1.60;;;0.20;99.90;;;;;;4403834;28;657752;-80
2023/12/23 12:39:47;;;;;;;9.57;2.30;;;0.10;99.90;;;;;;4417205;28;656911;-81
2023/12/23 12:42:37;;;;;;;2.77;1.03;;;0.10;99.90;;;;;;4394597;28;656887;-81
2023/12/23 12:45:25;;;;;;;7.47;2.90;;;0.00;99.90;;;;;;4393764;28;657621;-82
2023/12/23 12:48:13;;;;;;;5.73;1.53;;;-0.10;99.90;;;;;;4407779;28;656701;-79
2023/12/23 12:51:00;;;;;;;12.30;3.53;;;-0.10;99.90;;;;;;4414089;28;657515;-80
2023/12/23 12:53:47;;;;;;;9.17;3.37;;;-0.20;99.90;;;;;;4393920;28;658693;-80
2023/12/23 12:56:34;;;;;;;8.00;3.30;;;-0.20;99.90;;;;;;4434133;28;657853;-81
2023/12/23 12:59:23;;;;;;;10.23;3.20;;;-0.30;99.90;;;;;;4433434;28;657698;-81
2023/12/23 13:02:10;;;;;;;14.67;3.37;;;-0.20;99.90;;;;;;4405991;28;658935;-81
2023/12/23 13:04:57;;;;;;;17.30;4.20;;;-0.20;99.90;;;;;;4409182;28;658614;-78
2023/12/23 13:07:46;;;;;;;13.07;4.37;;;-0.20;99.90;;;;;;4432876;28;658399;-80
2023/12/23 13:10:34;;;;;;;11.13;3.90;;;-0.20;99.90;;;;;;4405496;28;658960;-80
2023/12/23 13:13:21;;;;;;;19.07;5.17;;;-0.30;99.90;;;;;;4429420;28;658634;-80
2023/12/23 13:16:10;;;;;;;6.00;2.77;;;-0.30;99.90;;;;;;4409606;28;658774;-80
2023/12/23 13:18:57;;;;;;;8.37;2.40;;;-0.30;99.90;;;;;;4426133;28;658070;-79
2023/12/23 13:21:44;;;;;;;10.90;3.30;;;-0.20;99.90;;;;;;4433805;28;657804;-80
2023/12/23 13:24:32;;;;;;;6.80;2.80;;;-0.20;99.90;;;;;;4432908;28;658459;-80
2023/12/23 13:27:19;;;;;;;8.40;2.17;;;-0.20;99.90;;;;;;4413802;28;657704;-80
2023/12/23 13:30:08;;;;;;;11.20;3.60;;;-0.20;99.90;;;;;;4437080;28;657230;-80
2023/12/23 13:32:56;;;;;;;7.67;3.27;;;-0.20;99.90;;;;;;4411983;28;659873;-80
2023/12/23 13:35:43;;;;;;;8.40;3.23;;;-0.20;99.90;;;;;;4413775;28;657558;-80
2023/12/23 13:38:31;;;;;;;8.90;3.43;;;-0.20;99.90;;;;;;4436098;28;657508;-81
2023/12/23 13:41:25;;;;;;;8.93;3.13;;;-0.30;99.90;;;;;;4413877;28;657533;-79
2023/12/23 13:44:12;;;;;;;3.90;1.67;;;-0.30;99.90;;;;;;4426796;28;657892;-78
2023/12/23 13:47:00;;;;;;;9.03;2.77;;;-0.20;99.90;;;;;;4436578;28;657862;-80
2023/12/23 13:49:49;;;;;;;4.40;2.03;;;-0.30;99.90;;;;;;4427900;28;657461;-80
2023/12/23 13:52:36;;;;;;;6.30;2.13;;;-0.30;99.90;;;;;;4432434;28;657553;-80
2023/12/23 13:55:23;;;;;;;6.13;2.73;;;-0.30;99.90;;;;;;4412797;28;657742;-81
2023/12/23 13:58:11;;;;;;;6.73;2.80;;;-0.30;99.90;;;;;;4436822;28;657885;-80
2023/12/23 14:00:58;;;;;;;6.97;3.33;;;-0.30;99.90;;;;;;4412899;28;657728;-80
2023/12/23 14:03:45;;;;;;;6.00;3.40;;;-0.30;99.90;;;;;;4434051;28;657732;-80
2023/12/23 14:06:34;;;;;;;3.25;1.70;;;-0.30;99.90;;;;;;4413207;28;657814;-78
2023/12/23 14:09:21;;;;;;;6.63;1.63;;;-0.30;99.90;;;;;;4436112;28;657809;-80
2023/12/23 14:12:09;;;;;;;6.82;3.08;;;-0.30;99.90;;;;;;4410200;28;657508;-81
2023/12/23 14:14:56;;;;;;;8.70;4.23;;;-0.30;99.90;;;;;;4432321;28;657664;-80
2023/12/23 14:17:43;;;;;;;6.70;3.60;;;-0.30;99.90;;;;;;4413214;28;658046;-80
2023/12/23 14:20:30;;;;;;;7.47;3.47;;;-0.40;99.90;;;;;;4434544;28;657720;-81
2023/12/23 14:23:19;;;;;;;11.27;4.07;;;-0.30;99.90;;;;;;4430956;28;657297;-78
2023/12/23 14:26:06;;;;;;;9.17;4.10;;;-0.30;99.90;;;;;;4452664;28;658580;-80
2023/12/23 14:28:54;;;;;;;6.77;3.77;;;-0.30;99.90;;;;;;4429097;28;657656;-81